You are not logged in, Click here to log in
仙台空港SDJ / RJSS 日本宮城縣名取市與岩沼市之間
ICAO: RJSS Country: 日本宮城縣名取市與岩沼市之間
Latitude: 38.1397 Longitude: 140.917
Total Arrivals: 16 Total Departures: 14
Latest Arrival: A0TN08 (RJBB-RJSS)KE. CHIH-HAO Latest Departure: TW109 (RJSS-RJCH)KE. CHIH-HAO
Scenery:
METAR : RJSS 221200Z 33003KT 9999 FEW015 SCT020 BKN/// 20/17 Q1019

仙台空港SDJ

You are accessing this site from IP address 34.200.236.68. Virtual Airline. CMS by phpVMS.Website designed by Zumeweb and edited by Theo Bearman.
There is 0 User(s) Online: | and 24 Guest(s) Online.
All information on this site is for fight simulation purposes only. This site is for flight logging for pilots of Virtual Airline&模擬飛行論壇 FlySim only.